臺北飛航情報區 - 海峽席

METAR RCTP 120400Z 11010KT 070V150 9999 FEW020 28/15 Q1016 NOSIG RMK A3003=

站台狀態:Online
最後更新:2019-11-12 12:15:01